createdAt,value
2023-05-10T09:33:47.213Z,17.50
2023-05-10T09:39:08.665Z,19.25
2023-05-10T09:44:30.022Z,19.31
2023-05-10T09:49:52.464Z,18.77
2023-05-10T09:55:14.175Z,20.24
2023-05-10T10:00:45.950Z,21.99
2023-05-10T10:06:15.887Z,23.69
2023-05-10T10:11:44.243Z,24.24
2023-05-10T10:17:08.717Z,25.45
2023-05-10T10:22:30.321Z,25.90
2023-05-10T10:27:54.782Z,26.14
2023-05-10T10:33:37.787Z,26.80
2023-05-10T10:39:04.305Z,26.86
2023-05-10T10:44:33.269Z,26.42
2023-05-10T10:50:05.216Z,27.08
2023-05-10T10:55:28.487Z,26.93
2023-05-10T11:00:49.637Z,26.96
2023-05-10T11:06:10.775Z,25.34
2023-05-10T11:11:32.616Z,25.38
2023-05-10T11:16:54.772Z,25.07
2023-05-10T11:22:16.164Z,25.04
2023-05-10T11:27:38.937Z,26.09
2023-05-10T11:33:00.620Z,25.44
2023-05-10T11:38:22.061Z,24.74
2023-05-10T11:43:43.415Z,24.31
2023-05-10T11:49:08.021Z,24.99
2023-05-10T11:54:28.811Z,25.01
2023-05-10T11:59:54.723Z,25.64
2023-05-10T12:05:15.911Z,26.00
2023-05-10T12:10:37.051Z,26.98
2023-05-10T12:16:02.061Z,28.36
2023-05-10T12:21:23.698Z,29.79
2023-05-10T12:32:41.985Z,30.73
2023-05-10T12:38:03.124Z,30.75
2023-05-10T12:43:24.196Z,31.68
2023-05-10T12:48:45.554Z,32.73
2023-05-10T12:54:10.936Z,33.69
2023-05-10T12:59:32.601Z,33.35
2023-05-10T13:04:54.249Z,33.47
2023-05-10T13:10:15.693Z,33.32
2023-05-10T13:15:36.884Z,32.93
2023-05-10T13:20:58.655Z,33.02
2023-05-10T13:26:21.086Z,33.02
2023-05-10T13:31:42.387Z,32.88
2023-05-10T13:37:03.336Z,32.92
2023-05-10T13:42:25.019Z,33.09
2023-05-10T13:47:46.403Z,33.27
2023-05-10T13:53:07.732Z,33.29
2023-05-10T13:58:28.888Z,33.33
2023-05-10T14:03:50.954Z,33.83
2023-05-10T14:09:12.280Z,33.51
2023-05-10T14:14:33.136Z,33.74
2023-05-10T14:19:54.533Z,33.93
2023-05-10T14:25:15.905Z,34.23
2023-05-10T14:30:37.758Z,34.57
2023-05-10T14:35:58.941Z,34.79
2023-05-10T14:41:20.106Z,35.13
2023-05-10T14:46:41.532Z,35.52
2023-05-10T14:52:03.033Z,35.75
2023-05-10T14:57:23.620Z,35.47
2023-05-10T15:02:44.835Z,37.12
2023-05-10T15:08:07.003Z,38.56
2023-05-10T15:13:28.259Z,39.14
2023-05-10T15:18:50.215Z,39.71
2023-05-10T15:24:11.617Z,40.20
2023-05-10T15:29:33.771Z,39.93
2023-05-10T15:34:55.415Z,40.49
2023-05-10T15:40:17.422Z,41.58
2023-05-10T15:45:40.114Z,42.04
2023-05-10T15:51:01.297Z,43.30
2023-05-10T15:56:22.548Z,43.39
2023-05-10T16:01:43.505Z,43.30
2023-05-10T16:07:04.812Z,43.97
2023-05-10T16:12:26.259Z,44.15
2023-05-10T16:17:47.538Z,43.66
2023-05-10T16:23:08.726Z,43.51
2023-05-10T16:28:29.764Z,43.32
2023-05-10T16:33:50.509Z,43.20
2023-05-10T16:39:11.503Z,42.41
2023-05-10T16:44:32.635Z,42.53
2023-05-10T16:49:53.299Z,42.82
2023-05-10T16:55:14.084Z,42.79
2023-05-10T17:00:35.053Z,42.98
2023-05-10T17:05:56.273Z,42.69
2023-05-10T17:11:17.343Z,42.92
2023-05-10T17:16:38.180Z,42.99
2023-05-10T17:21:59.216Z,43.27
2023-05-10T17:27:19.924Z,43.78
2023-05-10T17:32:41.234Z,44.30
2023-05-10T17:38:02.244Z,44.84
2023-05-10T17:43:23.503Z,45.66
2023-05-10T17:48:44.102Z,45.97
2023-05-10T17:54:04.902Z,46.66
2023-05-10T17:59:25.632Z,46.58
2023-05-10T18:04:46.855Z,47.25
2023-05-10T18:10:08.288Z,47.08
2023-05-10T18:15:28.819Z,48.33
2023-05-10T18:20:56.366Z,48.46
2023-05-10T18:26:18.191Z,48.67
2023-05-10T18:31:39.306Z,48.91
2023-05-10T18:37:00.004Z,49.99
2023-05-10T18:42:20.667Z,51.66
2023-05-10T18:47:41.501Z,51.70
2023-05-10T18:53:03.886Z,52.37
2023-05-10T18:58:25.983Z,53.25
2023-05-10T19:03:46.608Z,54.17
2023-05-10T19:09:08.661Z,54.64
2023-05-10T19:14:29.827Z,54.82
2023-05-10T19:19:50.833Z,55.48
2023-05-10T19:25:13.038Z,55.87
2023-05-10T19:30:34.021Z,56.96
2023-05-10T19:35:55.317Z,57.02
2023-05-10T19:41:16.101Z,57.14
2023-05-10T19:46:36.906Z,57.24
2023-05-10T19:51:57.621Z,57.77
2023-05-10T19:57:18.497Z,58.51
2023-05-10T20:02:39.630Z,58.78
2023-05-10T20:08:00.060Z,59.09
2023-05-10T20:13:20.809Z,59.97
2023-05-10T20:18:41.626Z,59.09
2023-05-10T20:24:02.528Z,59.54
2023-05-10T20:29:22.921Z,59.85
2023-05-10T20:34:44.169Z,59.90
2023-05-10T20:40:05.515Z,60.02
2023-05-10T20:45:26.416Z,60.13
2023-05-10T20:50:47.093Z,60.39
2023-05-10T20:56:07.980Z,60.34
2023-05-10T21:01:28.620Z,60.03
2023-05-10T21:06:49.435Z,60.32
2023-05-10T21:12:10.019Z,61.04
2023-05-10T21:17:30.517Z,61.31
2023-05-10T21:22:51.354Z,61.51
2023-05-10T21:28:11.986Z,62.78
2023-05-10T21:33:32.780Z,63.04
2023-05-10T21:38:53.385Z,62.91
2023-05-10T21:44:14.211Z,62.78
2023-05-10T21:49:34.952Z,63.40
2023-05-10T21:54:55.695Z,63.67
2023-05-10T22:00:17.444Z,63.47
2023-05-10T22:05:38.866Z,63.66
2023-05-10T22:11:00.032Z,63.89
2023-05-10T22:16:21.237Z,63.36
2023-05-10T22:21:42.595Z,63.74
2023-05-10T22:27:03.590Z,63.79
2023-05-10T22:32:24.271Z,63.78
2023-05-10T22:37:44.845Z,63.67
2023-05-10T22:43:05.524Z,63.75
2023-05-10T22:48:25.985Z,63.83
2023-05-10T22:53:46.737Z,63.49
2023-05-10T22:59:07.258Z,63.47
2023-05-10T23:04:28.090Z,63.53
2023-05-10T23:09:48.874Z,63.32
2023-05-10T23:15:10.082Z,62.84
2023-05-10T23:20:30.809Z,63.00
2023-05-10T23:25:51.587Z,62.61
2023-05-10T23:31:12.249Z,61.79
2023-05-10T23:36:33.522Z,61.68
2023-05-10T23:41:54.905Z,61.34
2023-05-10T23:47:15.631Z,61.25
2023-05-10T23:52:36.178Z,61.05
2023-05-10T23:57:57.016Z,60.55
